Continental Highway — H9LY — position and weather

sailwx.info

Track history (hours):
 
Tides and Currents Weather Stations Pressure Air Temp Water Temp Dewpoint Dewpoint Depression Visibility Wind Speed Wind Dir Waves Ship Positions

Continental Highway

Last reported at 2014-Sep-21 07:22 UTC. Time now 2014-Sep-30 14:03 UTC.
Position N 34°27' W 122°05'.
Warning: this ship's position is 9 days out of date.

Length 199.9 m; beam 32.2 m.

Type: Cargo ship. MMSI: 351223000.

Date/timePositionNaut miles runAvg speedWind from/ knotsBaromVisibWave heightAir tempDewpointWater temp
2014-Sep-21 07:22N 34°27' W 122°05'1416.8
2014-Sep-21 06:31N 34°27' W 121°48'7314.6
2014-Sep-21 01:32N 34°19' W 120°20'1414.6
2014-Sep-21 00:33N 34°16' W 120°03'1414.3
2014-Sep-20 23:33N 34°12' W 119°47'1414.4
2014-Sep-20 22:33N 34°08' W 119°30'1313.2
2014-Sep-20 21:33N 34°07' W 119°14'2 0.2
2014-Sep-20 12:09N 34°09' W 119°12'3 4.8
2014-Sep-20 11:33N 34°07' W 119°14'1 1.0
2014-Sep-20 10:05N 34°07' W 119°13'0 0.0
2014-Sep-20 09:20N 34°07' W 119°13'0 0.1
2014-Sep-20 08:29N 34°07' W 119°12'0 0.0
2014-Sep-20 00:23N 34°07' W 119°12'42 3.5
2014-Sep-19 12:33N 33°25' W 119°15'1514.3
2014-Sep-19 11:30N 33°10' W 119°12'4514.0
2014-Sep-19 08:19N 32°29' W 118°51'911.2
2014-Sep-19 07:33N 32°21' W 118°46'1413.8
2014-Sep-19 06:34N 32°09' W 118°39'1616.3
2014-Sep-19 05:33N 31°55' W 118°30'1616.4
2014-Sep-19 04:33N 31°40' W 118°21'2216.2
2014-Sep-19 03:13N 31°22' W 118°08'1015.9
2014-Sep-19 02:33N 31°13' W 118°01'20116.2
2014-Sep-18 14:09N 28°21' W 115°60'  
Track history (hours):
 
Tides and Currents Weather Stations Pressure Air Temp Water Temp Dewpoint Dewpoint Depression Visibility Wind Speed Wind Dir Waves Ship Positions

Continental Highway

Last reported at 2014-Sep-21 07:22 UTC. Time now 2014-Sep-30 14:03 UTC.
Position N 34°27' W 122°05'.
Warning: this ship's position is 9 days out of date.

Length 199.9 m; beam 32.2 m.

Type: Cargo ship. MMSI: 351223000.

Date/timePositionNaut miles runAvg speedWind from/ knotsBaromVisibWave heightAir tempDewpointWater temp
2014-Sep-21 07:22N 34°27' W 122°05'1416.8
2014-Sep-21 06:31N 34°27' W 121°48'7314.6
2014-Sep-21 01:32N 34°19' W 120°20'1414.6
2014-Sep-21 00:33N 34°16' W 120°03'1414.3
2014-Sep-20 23:33N 34°12' W 119°47'1414.4
2014-Sep-20 22:33N 34°08' W 119°30'1313.2
2014-Sep-20 21:33N 34°07' W 119°14'2 0.2
2014-Sep-20 12:09N 34°09' W 119°12'3 4.8
2014-Sep-20 11:33N 34°07' W 119°14'1 1.0
2014-Sep-20 10:05N 34°07' W 119°13'0 0.0
2014-Sep-20 09:20N 34°07' W 119°13'0 0.1
2014-Sep-20 08:29N 34°07' W 119°12'0 0.0
2014-Sep-20 00:23N 34°07' W 119°12'42 3.5
2014-Sep-19 12:33N 33°25' W 119°15'1514.3
2014-Sep-19 11:30N 33°10' W 119°12'4514.0
2014-Sep-19 08:19N 32°29' W 118°51'911.2
2014-Sep-19 07:33N 32°21' W 118°46'1413.8
2014-Sep-19 06:34N 32°09' W 118°39'1616.3
2014-Sep-19 05:33N 31°55' W 118°30'1616.4
2014-Sep-19 04:33N 31°40' W 118°21'2216.2
2014-Sep-19 03:13N 31°22' W 118°08'1015.9
2014-Sep-19 02:33N 31°13' W 118°01'20116.2
2014-Sep-18 14:09N 28°21' W 115°60'  

Dump ship's entire track history